sensor_id;sensor_type;location;lat;lon;timestamp;P1;durP1;ratioP1;P2;durP2;ratioP2
15476;SDS011;7840;42.702;23.296;2022-11-20T00:01:36;8.20;;;2.10;;
15476;SDS011;7840;42.702;23.296;2022-11-20T00:04:03;2.30;;;1.83;;
15476;SDS011;7840;42.702;23.296;2022-11-20T00:06:31;2.78;;;1.90;;
15476;SDS011;7840;42.702;23.296;2022-11-20T00:08:59;3.47;;;1.60;;
15476;SDS011;7840;42.702;23.296;2022-11-20T00:11:28;2.88;;;2.50;;
15476;SDS011;7840;42.702;23.296;2022-11-20T00:13:58;4.75;;;2.70;;
15476;SDS011;7840;42.702;23.296;2022-11-20T00:16:29;5.28;;;2.20;;
15476;SDS011;7840;42.702;23.296;2022-11-20T00:18:58;2.88;;;1.30;;
15476;SDS011;7840;42.702;23.296;2022-11-20T00:21:27;3.38;;;1.52;;
15476;SDS011;7840;42.702;23.296;2022-11-20T00:23:56;4.93;;;1.60;;
15476;SDS011;7840;42.702;23.296;2022-11-20T00:26:25;2.03;;;1.40;;
15476;SDS011;7840;42.702;23.296;2022-11-20T00:28:54;3.63;;;1.25;;
15476;SDS011;7840;42.702;23.296;2022-11-20T00:31:25;2.85;;;1.30;;
15476;SDS011;7840;42.702;23.296;2022-11-20T00:33:55;4.55;;;1.40;;
15476;SDS011;7840;42.702;23.296;2022-11-20T00:36:37;2.47;;;0.90;;
15476;SDS011;7840;42.702;23.296;2022-11-20T00:39:09;1.80;;;1.30;;
15476;SDS011;7840;42.702;23.296;2022-11-20T00:41:42;2.28;;;1.15;;
15476;SDS011;7840;42.702;23.296;2022-11-20T00:44:09;2.97;;;1.52;;
15476;SDS011;7840;42.702;23.296;2022-11-20T00:46:38;2.60;;;1.17;;
15476;SDS011;7840;42.702;23.296;2022-11-20T00:49:08;1.90;;;1.15;;
15476;SDS011;7840;42.702;23.296;2022-11-20T00:51:52;3.30;;;1.45;;
15476;SDS011;7840;42.702;23.296;2022-11-20T00:54:21;2.42;;;1.10;;
15476;SDS011;7840;42.702;23.296;2022-11-20T00:56:49;4.82;;;1.40;;
15476;SDS011;7840;42.702;23.296;2022-11-20T00:59:19;2.72;;;1.20;;
15476;SDS011;7840;42.702;23.296;2022-11-20T01:01:49;2.67;;;1.25;;
15476;SDS011;7840;42.702;23.296;2022-11-20T01:04:18;2.55;;;1.30;;
15476;SDS011;7840;42.702;23.296;2022-11-20T01:06:46;3.15;;;1.20;;
15476;SDS011;7840;42.702;23.296;2022-11-20T01:09:13;5.60;;;1.20;;
15476;SDS011;7840;42.702;23.296;2022-11-20T01:11:56;4.80;;;1.60;;
15476;SDS011;7840;42.702;23.296;2022-11-20T01:14:28;2.55;;;1.55;;
15476;SDS011;7840;42.702;23.296;2022-11-20T01:17:08;3.22;;;1.63;;
15476;SDS011;7840;42.702;23.296;2022-11-20T01:19:36;0.95;;;0.90;;
15476;SDS011;7840;42.702;23.296;2022-11-20T01:22:04;4.40;;;1.50;;
15476;SDS011;7840;42.702;23.296;2022-11-20T01:24:32;3.90;;;1.40;;
15476;SDS011;7840;42.702;23.296;2022-11-20T01:26:59;3.65;;;1.33;;
15476;SDS011;7840;42.702;23.296;2022-11-20T01:29:28;1.90;;;1.02;;
15476;SDS011;7840;42.702;23.296;2022-11-20T01:31:56;3.00;;;1.58;;
15476;SDS011;7840;42.702;23.296;2022-11-20T01:34:28;2.10;;;1.40;;
15476;SDS011;7840;42.702;23.296;2022-11-20T01:36:58;5.20;;;1.30;;
15476;SDS011;7840;42.702;23.296;2022-11-20T01:39:26;4.20;;;1.40;;
15476;SDS011;7840;42.702;23.296;2022-11-20T01:42:12;2.65;;;1.27;;
15476;SDS011;7840;42.702;23.296;2022-11-20T01:44:58;2.88;;;1.33;;
15476;SDS011;7840;42.702;23.296;2022-11-20T01:47:30;1.73;;;1.30;;
15476;SDS011;7840;42.702;23.296;2022-11-20T01:50:18;5.38;;;1.50;;
15476;SDS011;7840;42.702;23.296;2022-11-20T01:52:55;2.88;;;0.93;;
15476;SDS011;7840;42.702;23.296;2022-11-20T01:55:41;2.25;;;1.08;;
15476;SDS011;7840;42.702;23.296;2022-11-20T01:58:14;1.05;;;0.80;;
15476;SDS011;7840;42.702;23.296;2022-11-20T02:00:45;3.70;;;1.25;;
15476;SDS011;7840;42.702;23.296;2022-11-20T02:03:14;2.22;;;1.05;;
15476;SDS011;7840;42.702;23.296;2022-11-20T02:05:46;2.92;;;1.10;;
15476;SDS011;7840;42.702;23.296;2022-11-20T02:08:18;1.65;;;1.10;;
15476;SDS011;7840;42.702;23.296;2022-11-20T02:10:52;1.73;;;1.17;;
15476;SDS011;7840;42.702;23.296;2022-11-20T02:13:23;4.00;;;1.52;;
15476;SDS011;7840;42.702;23.296;2022-11-20T02:16:16;2.85;;;1.05;;
15476;SDS011;7840;42.702;23.296;2022-11-20T02:18:48;2.25;;;1.10;;
15476;SDS011;7840;42.702;23.296;2022-11-20T02:21:21;4.45;;;1.15;;
15476;SDS011;7840;42.702;23.296;2022-11-20T02:24:03;3.00;;;1.17;;
15476;SDS011;7840;42.702;23.296;2022-11-20T02:26:47;3.63;;;1.10;;
15476;SDS011;7840;42.702;23.296;2022-11-20T02:29:22;4.72;;;1.25;;
15476;SDS011;7840;42.702;23.296;2022-11-20T02:31:52;2.65;;;1.20;;
15476;SDS011;7840;42.702;23.296;2022-11-20T02:34:23;3.15;;;1.10;;
15476;SDS011;7840;42.702;23.296;2022-11-20T02:36:50;5.40;;;1.35;;
15476;SDS011;7840;42.702;23.296;2022-11-20T02:39:20;3.20;;;1.30;;
15476;SDS011;7840;42.702;23.296;2022-11-20T02:41:52;1.30;;;1.10;;
15476;SDS011;7840;42.702;23.296;2022-11-20T02:44:20;2.88;;;1.38;;
15476;SDS011;7840;42.702;23.296;2022-11-20T02:46:48;2.00;;;1.20;;
15476;SDS011;7840;42.702;23.296;2022-11-20T02:49:15;1.73;;;1.25;;
15476;SDS011;7840;42.702;23.296;2022-11-20T02:51:43;1.30;;;1.10;;
15476;SDS011;7840;42.702;23.296;2022-11-20T02:54:12;3.70;;;1.50;;
15476;SDS011;7840;42.702;23.296;2022-11-20T02:56:42;2.10;;;1.30;;
15476;SDS011;7840;42.702;23.296;2022-11-20T02:59:12;4.53;;;1.65;;
15476;SDS011;7840;42.702;23.296;2022-11-20T03:01:39;6.03;;;1.70;;
15476;SDS011;7840;42.702;23.296;2022-11-20T03:04:07;2.88;;;1.33;;
15476;SDS011;7840;42.702;23.296;2022-11-20T03:06:35;2.30;;;1.42;;
15476;SDS011;7840;42.702;23.296;2022-11-20T03:09:03;3.85;;;1.38;;
15476;SDS011;7840;42.702;23.296;2022-11-20T03:11:30;4.13;;;1.50;;
15476;SDS011;7840;42.702;23.296;2022-11-20T03:14:02;2.83;;;1.45;;
15476;SDS011;7840;42.702;23.296;2022-11-20T03:16:33;7.05;;;1.55;;
15476;SDS011;7840;42.702;23.296;2022-11-20T03:19:02;3.30;;;1.70;;
15476;SDS011;7840;42.702;23.296;2022-11-20T03:21:43;4.57;;;1.70;;
15476;SDS011;7840;42.702;23.296;2022-11-20T03:24:10;5.82;;;1.88;;
15476;SDS011;7840;42.702;23.296;2022-11-20T03:26:42;5.07;;;1.85;;
15476;SDS011;7840;42.702;23.296;2022-11-20T03:29:12;4.18;;;1.52;;
15476;SDS011;7840;42.702;23.296;2022-11-20T03:31:40;3.67;;;1.70;;
15476;SDS011;7840;42.702;23.296;2022-11-20T03:34:08;6.32;;;1.95;;
15476;SDS011;7840;42.702;23.296;2022-11-20T03:36:38;2.97;;;1.20;;
15476;SDS011;7840;42.702;23.296;2022-11-20T03:39:14;2.10;;;1.20;;
15476;SDS011;7840;42.702;23.296;2022-11-20T03:41:57;5.07;;;1.25;;
15476;SDS011;7840;42.702;23.296;2022-11-20T03:44:28;3.35;;;1.30;;
15476;SDS011;7840;42.702;23.296;2022-11-20T03:46:56;5.13;;;1.60;;
15476;SDS011;7840;42.702;23.296;2022-11-20T03:49:24;1.45;;;1.35;;
15476;SDS011;7840;42.702;23.296;2022-11-20T03:51:54;3.25;;;1.42;;
15476;SDS011;7840;42.702;23.296;2022-11-20T03:54:27;7.95;;;1.60;;
15476;SDS011;7840;42.702;23.296;2022-11-20T03:56:55;2.95;;;1.70;;
15476;SDS011;7840;42.702;23.296;2022-11-20T03:59:23;4.10;;;1.58;;
15476;SDS011;7840;42.702;23.296;2022-11-20T04:01:53;3.40;;;1.52;;
15476;SDS011;7840;42.702;23.296;2022-11-20T04:04:35;3.92;;;1.42;;
15476;SDS011;7840;42.702;23.296;2022-11-20T04:07:04;4.00;;;1.48;;
15476;SDS011;7840;42.702;23.296;2022-11-20T04:09:32;3.20;;;1.55;;
15476;SDS011;7840;42.702;23.296;2022-11-20T04:12:11;3.35;;;1.10;;
15476;SDS011;7840;42.702;23.296;2022-11-20T04:14:44;5.47;;;1.60;;
15476;SDS011;7840;42.702;23.296;2022-11-20T04:17:16;5.15;;;1.55;;
15476;SDS011;7840;42.702;23.296;2022-11-20T04:19:45;4.63;;;1.40;;
15476;SDS011;7840;42.702;23.296;2022-11-20T04:22:16;3.10;;;1.42;;
15476;SDS011;7840;42.702;23.296;2022-11-20T04:24:44;3.90;;;1.60;;
15476;SDS011;7840;42.702;23.296;2022-11-20T04:27:14;4.38;;;1.60;;
15476;SDS011;7840;42.702;23.296;2022-11-20T04:29:42;3.53;;;1.27;;
15476;SDS011;7840;42.702;23.296;2022-11-20T04:32:13;3.08;;;1.38;;
15476;SDS011;7840;42.702;23.296;2022-11-20T04:34:42;2.58;;;1.23;;
15476;SDS011;7840;42.702;23.296;2022-11-20T04:37:10;2.30;;;1.15;;
15476;SDS011;7840;42.702;23.296;2022-11-20T04:39:38;3.17;;;1.02;;
15476;SDS011;7840;42.702;23.296;2022-11-20T04:42:07;1.85;;;1.15;;
15476;SDS011;7840;42.702;23.296;2022-11-20T04:44:53;2.22;;;1.20;;
15476;SDS011;7840;42.702;23.296;2022-11-20T04:47:21;7.00;;;1.35;;
15476;SDS011;7840;42.702;23.296;2022-11-20T04:49:51;3.45;;;1.20;;
15476;SDS011;7840;42.702;23.296;2022-11-20T04:52:22;3.55;;;1.20;;
15476;SDS011;7840;42.702;23.296;2022-11-20T04:54:52;5.35;;;1.30;;
15476;SDS011;7840;42.702;23.296;2022-11-20T04:57:23;4.60;;;1.50;;
15476;SDS011;7840;42.702;23.296;2022-11-20T04:59:54;2.50;;;1.20;;
15476;SDS011;7840;42.702;23.296;2022-11-20T05:02:24;2.83;;;1.10;;
15476;SDS011;7840;42.702;23.296;2022-11-20T05:04:53;4.95;;;1.30;;
15476;SDS011;7840;42.702;23.296;2022-11-20T05:07:21;3.15;;;1.55;;
15476;SDS011;7840;42.702;23.296;2022-11-20T05:09:49;3.63;;;1.38;;
15476;SDS011;7840;42.702;23.296;2022-11-20T05:12:18;2.42;;;1.30;;
15476;SDS011;7840;42.702;23.296;2022-11-20T05:14:46;4.85;;;1.42;;
15476;SDS011;7840;42.702;23.296;2022-11-20T05:17:13;3.75;;;1.27;;
15476;SDS011;7840;42.702;23.296;2022-11-20T05:19:45;5.20;;;1.85;;
15476;SDS011;7840;42.702;23.296;2022-11-20T05:22:15;2.38;;;1.40;;
15476;SDS011;7840;42.702;23.296;2022-11-20T05:24:43;3.05;;;0.95;;
15476;SDS011;7840;42.702;23.296;2022-11-20T05:27:10;2.67;;;1.20;;
15476;SDS011;7840;42.702;23.296;2022-11-20T05:29:40;1.63;;;1.25;;
15476;SDS011;7840;42.702;23.296;2022-11-20T05:32:08;1.80;;;1.15;;
15476;SDS011;7840;42.702;23.296;2022-11-20T05:34:35;3.70;;;1.20;;
15476;SDS011;7840;42.702;23.296;2022-11-20T05:37:03;1.77;;;1.33;;
15476;SDS011;7840;42.702;23.296;2022-11-20T05:39:32;7.38;;;1.77;;
15476;SDS011;7840;42.702;23.296;2022-11-20T05:42:00;3.95;;;1.60;;
15476;SDS011;7840;42.702;23.296;2022-11-20T05:44:45;3.08;;;1.23;;
15476;SDS011;7840;42.702;23.296;2022-11-20T05:47:13;5.85;;;1.65;;
15476;SDS011;7840;42.702;23.296;2022-11-20T05:49:42;5.18;;;1.48;;
15476;SDS011;7840;42.702;23.296;2022-11-20T05:52:09;4.20;;;1.48;;
15476;SDS011;7840;42.702;23.296;2022-11-20T05:54:39;7.03;;;1.95;;
15476;SDS011;7840;42.702;23.296;2022-11-20T05:57:06;2.90;;;1.52;;
15476;SDS011;7840;42.702;23.296;2022-11-20T05:59:34;2.75;;;1.30;;
15476;SDS011;7840;42.702;23.296;2022-11-20T06:02:02;2.83;;;1.40;;
15476;SDS011;7840;42.702;23.296;2022-11-20T06:04:30;2.42;;;1.45;;
15476;SDS011;7840;42.702;23.296;2022-11-20T06:06:57;2.15;;;1.40;;
15476;SDS011;7840;42.702;23.296;2022-11-20T06:09:25;2.85;;;1.48;;
15476;SDS011;7840;42.702;23.296;2022-11-20T06:11:54;4.40;;;1.88;;
15476;SDS011;7840;42.702;23.296;2022-11-20T06:14:22;4.70;;;1.60;;
15476;SDS011;7840;42.702;23.296;2022-11-20T06:16:50;2.65;;;1.77;;
15476;SDS011;7840;42.702;23.296;2022-11-20T06:19:17;2.88;;;1.98;;
15476;SDS011;7840;42.702;23.296;2022-11-20T06:21:45;3.65;;;1.77;;
15476;SDS011;7840;42.702;23.296;2022-11-20T06:24:15;2.50;;;1.80;;
15476;SDS011;7840;42.702;23.296;2022-11-20T06:27:08;2.17;;;1.60;;
15476;SDS011;7840;42.702;23.296;2022-11-20T06:29:36;6.00;;;2.25;;
15476;SDS011;7840;42.702;23.296;2022-11-20T06:32:05;4.97;;;2.05;;
15476;SDS011;7840;42.702;23.296;2022-11-20T06:34:33;6.50;;;2.05;;
15476;SDS011;7840;42.702;23.296;2022-11-20T06:37:00;4.32;;;2.05;;
15476;SDS011;7840;42.702;23.296;2022-11-20T06:39:28;9.05;;;2.03;;
15476;SDS011;7840;42.702;23.296;2022-11-20T06:41:58;5.22;;;2.13;;
15476;SDS011;7840;42.702;23.296;2022-11-20T06:44:26;4.88;;;2.03;;
15476;SDS011;7840;42.702;23.296;2022-11-20T06:46:54;4.35;;;2.20;;
15476;SDS011;7840;42.702;23.296;2022-11-20T06:49:22;6.07;;;2.85;;
15476;SDS011;7840;42.702;23.296;2022-11-20T06:51:53;10.20;;;3.08;;
15476;SDS011;7840;42.702;23.296;2022-11-20T06:54:36;4.45;;;1.83;;
15476;SDS011;7840;42.702;23.296;2022-11-20T06:57:23;4.95;;;2.05;;
15476;SDS011;7840;42.702;23.296;2022-11-20T06:59:55;3.50;;;1.60;;
15476;SDS011;7840;42.702;23.296;2022-11-20T07:02:24;4.45;;;1.90;;
15476;SDS011;7840;42.702;23.296;2022-11-20T07:04:52;3.78;;;1.90;;
15476;SDS011;7840;42.702;23.296;2022-11-20T07:07:20;5.13;;;1.90;;
15476;SDS011;7840;42.702;23.296;2022-11-20T07:09:48;3.78;;;2.00;;
15476;SDS011;7840;42.702;23.296;2022-11-20T07:12:17;5.30;;;1.90;;
15476;SDS011;7840;42.702;23.296;2022-11-20T07:14:45;3.10;;;2.13;;
15476;SDS011;7840;42.702;23.296;2022-11-20T07:17:13;3.22;;;1.90;;
15476;SDS011;7840;42.702;23.296;2022-11-20T07:19:46;5.88;;;1.83;;
15476;SDS011;7840;42.702;23.296;2022-11-20T07:22:17;4.72;;;1.83;;
15476;SDS011;7840;42.702;23.296;2022-11-20T07:24:46;7.45;;;2.10;;
15476;SDS011;7840;42.702;23.296;2022-11-20T07:27:14;3.33;;;1.50;;
15476;SDS011;7840;42.702;23.296;2022-11-20T07:29:44;3.78;;;1.73;;
15476;SDS011;7840;42.702;23.296;2022-11-20T07:32:12;4.32;;;1.52;;
15476;SDS011;7840;42.702;23.296;2022-11-20T07:34:39;2.83;;;1.50;;
15476;SDS011;7840;42.702;23.296;2022-11-20T07:37:08;3.50;;;1.80;;
15476;SDS011;7840;42.702;23.296;2022-11-20T07:39:39;3.17;;;1.92;;
15476;SDS011;7840;42.702;23.296;2022-11-20T07:42:29;4.40;;;2.35;;
15476;SDS011;7840;42.702;23.296;2022-11-20T07:45:07;11.30;;;2.30;;
15476;SDS011;7840;42.702;23.296;2022-11-20T07:47:42;5.47;;;2.53;;
15476;SDS011;7840;42.702;23.296;2022-11-20T07:50:16;3.45;;;2.22;;
15476;SDS011;7840;42.702;23.296;2022-11-20T07:53:00;5.63;;;2.53;;
15476;SDS011;7840;42.702;23.296;2022-11-20T07:55:45;4.55;;;2.08;;
15476;SDS011;7840;42.702;23.296;2022-11-20T07:58:17;7.60;;;2.33;;
15476;SDS011;7840;42.702;23.296;2022-11-20T08:00:47;8.13;;;3.45;;
15476;SDS011;7840;42.702;23.296;2022-11-20T08:03:34;4.63;;;2.72;;
15476;SDS011;7840;42.702;23.296;2022-11-20T08:06:03;7.22;;;2.60;;
15476;SDS011;7840;42.702;23.296;2022-11-20T08:08:32;8.10;;;3.03;;
15476;SDS011;7840;42.702;23.296;2022-11-20T08:11:02;5.10;;;2.60;;
15476;SDS011;7840;42.702;23.296;2022-11-20T08:13:56;5.60;;;2.40;;
15476;SDS011;7840;42.702;23.296;2022-11-20T08:16:40;5.25;;;3.28;;
15476;SDS011;7840;42.702;23.296;2022-11-20T08:19:20;5.65;;;2.60;;
15476;SDS011;7840;42.702;23.296;2022-11-20T08:21:58;7.30;;;2.72;;
15476;SDS011;7840;42.702;23.296;2022-11-20T08:24:45;5.75;;;2.85;;
15476;SDS011;7840;42.702;23.296;2022-11-20T08:27:16;5.50;;;2.83;;
15476;SDS011;7840;42.702;23.296;2022-11-20T08:29:44;8.05;;;3.33;;
15476;SDS011;7840;42.702;23.296;2022-11-20T08:32:13;3.15;;;2.17;;
15476;SDS011;7840;42.702;23.296;2022-11-20T08:34:57;7.47;;;2.45;;
15476;SDS011;7840;42.702;23.296;2022-11-20T08:40:12;7.57;;;3.13;;
15476;SDS011;7840;42.702;23.296;2022-11-20T08:42:48;5.93;;;3.28;;
15476;SDS011;7840;42.702;23.296;2022-11-20T08:45:52;7.85;;;2.67;;
15476;SDS011;7840;42.702;23.296;2022-11-20T08:48:22;7.43;;;2.22;;
15476;SDS011;7840;42.702;23.296;2022-11-20T08:50:50;5.63;;;2.15;;
15476;SDS011;7840;42.702;23.296;2022-11-20T08:53:17;4.90;;;2.00;;
15476;SDS011;7840;42.702;23.296;2022-11-20T08:55:48;6.13;;;2.35;;
15476;SDS011;7840;42.702;23.296;2022-11-20T08:58:15;6.47;;;2.67;;
15476;SDS011;7840;42.702;23.296;2022-11-20T09:00:43;8.55;;;2.25;;
15476;SDS011;7840;42.702;23.296;2022-11-20T09:03:13;3.90;;;2.38;;
15476;SDS011;7840;42.702;23.296;2022-11-20T09:05:40;7.43;;;2.50;;
15476;SDS011;7840;42.702;23.296;2022-11-20T09:08:08;7.53;;;3.03;;
15476;SDS011;7840;42.702;23.296;2022-11-20T09:10:36;8.40;;;3.00;;
15476;SDS011;7840;42.702;23.296;2022-11-20T09:13:05;8.50;;;2.90;;
15476;SDS011;7840;42.702;23.296;2022-11-20T09:15:33;9.30;;;3.72;;
15476;SDS011;7840;42.702;23.296;2022-11-20T09:18:01;7.78;;;3.10;;
15476;SDS011;7840;42.702;23.296;2022-11-20T09:20:34;10.65;;;3.33;;
15476;SDS011;7840;42.702;23.296;2022-11-20T09:23:02;7.47;;;2.92;;
15476;SDS011;7840;42.702;23.296;2022-11-20T09:25:29;4.63;;;2.10;;
15476;SDS011;7840;42.702;23.296;2022-11-20T09:28:10;7.65;;;2.40;;
15476;SDS011;7840;42.702;23.296;2022-11-20T09:30:38;6.75;;;2.47;;
15476;SDS011;7840;42.702;23.296;2022-11-20T09:33:05;3.80;;;1.92;;
15476;SDS011;7840;42.702;23.296;2022-11-20T09:35:38;3.35;;;1.75;;
15476;SDS011;7840;42.702;23.296;2022-11-20T09:38:05;6.90;;;2.47;;
15476;SDS011;7840;42.702;23.296;2022-11-20T09:41:13;5.85;;;2.63;;
15476;SDS011;7840;42.702;23.296;2022-11-20T09:43:59;6.00;;;2.17;;
15476;SDS011;7840;42.702;23.296;2022-11-20T09:46:37;4.07;;;2.33;;
15476;SDS011;7840;42.702;23.296;2022-11-20T09:49:31;5.72;;;2.00;;
15476;SDS011;7840;42.702;23.296;2022-11-20T09:52:22;5.10;;;2.47;;
15476;SDS011;7840;42.702;23.296;2022-11-20T09:55:00;7.97;;;3.00;;
15476;SDS011;7840;42.702;23.296;2022-11-20T09:57:33;7.60;;;3.30;;
15476;SDS011;7840;42.702;23.296;2022-11-20T10:00:09;7.63;;;3.42;;
15476;SDS011;7840;42.702;23.296;2022-11-20T10:02:40;8.02;;;4.15;;
15476;SDS011;7840;42.702;23.296;2022-11-20T10:05:15;8.55;;;3.72;;
15476;SDS011;7840;42.702;23.296;2022-11-20T10:07:47;8.27;;;3.22;;
15476;SDS011;7840;42.702;23.296;2022-11-20T10:10:27;7.38;;;2.65;;
15476;SDS011;7840;42.702;23.296;2022-11-20T10:13:20;6.25;;;2.38;;
15476;SDS011;7840;42.702;23.296;2022-11-20T10:16:13;4.40;;;2.92;;
15476;SDS011;7840;42.702;23.296;2022-11-20T10:19:03;7.95;;;3.22;;
15476;SDS011;7840;42.702;23.296;2022-11-20T10:21:50;7.53;;;3.10;;
15476;SDS011;7840;42.702;23.296;2022-11-20T10:27:27;6.63;;;3.08;;
15476;SDS011;7840;42.702;23.296;2022-11-20T10:30:17;9.35;;;3.03;;
15476;SDS011;7840;42.702;23.296;2022-11-20T10:33:03;5.30;;;3.22;;
15476;SDS011;7840;42.702;23.296;2022-11-20T10:35:33;7.07;;;2.88;;
15476;SDS011;7840;42.702;23.296;2022-11-20T10:38:08;11.15;;;3.38;;
15476;SDS011;7840;42.702;23.296;2022-11-20T10:41:15;15.68;;;3.95;;
15476;SDS011;7840;42.702;23.296;2022-11-20T10:43:52;10.65;;;3.58;;
15476;SDS011;7840;42.702;23.296;2022-11-20T10:46:33;10.27;;;4.00;;
15476;SDS011;7840;42.702;23.296;2022-11-20T10:49:09;8.55;;;3.50;;
15476;SDS011;7840;42.702;23.296;2022-11-20T10:51:43;9.23;;;4.07;;
15476;SDS011;7840;42.702;23.296;2022-11-20T10:54:22;9.45;;;4.30;;
15476;SDS011;7840;42.702;23.296;2022-11-20T10:57:01;13.57;;;4.55;;
15476;SDS011;7840;42.702;23.296;2022-11-20T11:02:32;11.60;;;5.18;;
15476;SDS011;7840;42.702;23.296;2022-11-20T11:05:11;11.88;;;4.82;;
15476;SDS011;7840;42.702;23.296;2022-11-20T11:07:50;9.55;;;3.97;;
15476;SDS011;7840;42.702;23.296;2022-11-20T11:10:22;6.32;;;1.60;;
15476;SDS011;7840;42.702;23.296;2022-11-20T11:13:01;4.63;;;1.30;;
15476;SDS011;7840;42.702;23.296;2022-11-20T11:15:29;2.05;;;1.20;;
15476;SDS011;7840;42.702;23.296;2022-11-20T11:18:03;1.70;;;1.20;;
15476;SDS011;7840;42.702;23.296;2022-11-20T11:20:34;1.83;;;1.40;;
15476;SDS011;7840;42.702;23.296;2022-11-20T11:23:10;2.08;;;1.08;;
15476;SDS011;7840;42.702;23.296;2022-11-20T11:25:56;5.38;;;1.10;;
15476;SDS011;7840;42.702;23.296;2022-11-20T11:28:27;2.95;;;1.20;;
15476;SDS011;7840;42.702;23.296;2022-11-20T11:30:55;5.20;;;1.55;;
15476;SDS011;7840;42.702;23.296;2022-11-20T11:33:23;1.90;;;1.38;;
15476;SDS011;7840;42.702;23.296;2022-11-20T11:35:53;6.00;;;1.50;;
15476;SDS011;7840;42.702;23.296;2022-11-20T11:38:27;3.95;;;1.40;;
15476;SDS011;7840;42.702;23.296;2022-11-20T11:40:57;1.50;;;1.15;;
15476;SDS011;7840;42.702;23.296;2022-11-20T11:43:26;2.55;;;1.20;;
15476;SDS011;7840;42.702;23.296;2022-11-20T11:46:28;3.55;;;1.40;;
15476;SDS011;7840;42.702;23.296;2022-11-20T11:48:58;4.85;;;1.40;;
15476;SDS011;7840;42.702;23.296;2022-11-20T11:54:19;3.90;;;1.50;;
15476;SDS011;7840;42.702;23.296;2022-11-20T11:56:51;5.15;;;1.55;;
15476;SDS011;7840;42.702;23.296;2022-11-20T11:59:25;5.32;;;1.40;;
15476;SDS011;7840;42.702;23.296;2022-11-20T12:02:14;5.45;;;1.30;;
15476;SDS011;7840;42.702;23.296;2022-11-20T12:04:53;5.57;;;2.08;;
15476;SDS011;7840;42.702;23.296;2022-11-20T12:07:27;1.65;;;1.40;;
15476;SDS011;7840;42.702;23.296;2022-11-20T12:10:05;2.72;;;1.30;;
15476;SDS011;7840;42.702;23.296;2022-11-20T12:12:41;2.80;;;1.50;;
15476;SDS011;7840;42.702;23.296;2022-11-20T12:15:15;5.93;;;1.75;;
15476;SDS011;7840;42.702;23.296;2022-11-20T12:17:49;6.25;;;1.55;;
15476;SDS011;7840;42.702;23.296;2022-11-20T12:20:17;6.35;;;1.80;;
15476;SDS011;7840;42.702;23.296;2022-11-20T12:22:47;4.50;;;1.83;;
15476;SDS011;7840;42.702;23.296;2022-11-20T12:25:22;3.58;;;1.70;;
15476;SDS011;7840;42.702;23.296;2022-11-20T12:28:07;4.72;;;1.73;;
15476;SDS011;7840;42.702;23.296;2022-11-20T12:30:50;4.57;;;1.90;;
15476;SDS011;7840;42.702;23.296;2022-11-20T12:33:47;3.63;;;2.10;;
15476;SDS011;7840;42.702;23.296;2022-11-20T12:36:28;5.03;;;1.75;;
15476;SDS011;7840;42.702;23.296;2022-11-20T12:45:25;2.72;;;1.80;;
15476;SDS011;7840;42.702;23.296;2022-11-20T12:51:21;3.40;;;1.42;;
15476;SDS011;7840;42.702;23.296;2022-11-20T12:54:27;3.97;;;2.40;;
15476;SDS011;7840;42.702;23.296;2022-11-20T12:57:18;6.25;;;4.63;;
15476;SDS011;7840;42.702;23.296;2022-11-20T12:59:56;8.45;;;4.20;;
15476;SDS011;7840;42.702;23.296;2022-11-20T13:02:39;8.52;;;4.47;;
15476;SDS011;7840;42.702;23.296;2022-11-20T13:05:24;8.75;;;3.70;;
15476;SDS011;7840;42.702;23.296;2022-11-20T13:08:00;11.55;;;3.38;;
15476;SDS011;7840;42.702;23.296;2022-11-20T13:10:42;10.95;;;5.40;;
15476;SDS011;7840;42.702;23.296;2022-11-20T13:13:18;9.95;;;7.38;;
15476;SDS011;7840;42.702;23.296;2022-11-20T13:16:06;24.42;;;20.10;;
15476;SDS011;7840;42.702;23.296;2022-11-20T13:19:00;21.92;;;15.50;;
15476;SDS011;7840;42.702;23.296;2022-11-20T13:21:37;28.25;;;22.83;;
15476;SDS011;7840;42.702;23.296;2022-11-20T13:24:20;66.72;;;50.72;;
15476;SDS011;7840;42.702;23.296;2022-11-20T13:27:01;34.70;;;26.65;;
15476;SDS011;7840;42.702;23.296;2022-11-20T13:29:59;8.70;;;5.15;;
15476;SDS011;7840;42.702;23.296;2022-11-20T13:32:47;6.90;;;4.40;;
15476;SDS011;7840;42.702;23.296;2022-11-20T13:35:23;7.13;;;3.53;;
15476;SDS011;7840;42.702;23.296;2022-11-20T13:38:01;4.15;;;2.67;;
15476;SDS011;7840;42.702;23.296;2022-11-20T13:40:32;5.82;;;2.72;;
15476;SDS011;7840;42.702;23.296;2022-11-20T13:43:04;4.15;;;2.60;;
15476;SDS011;7840;42.702;23.296;2022-11-20T13:45:41;6.97;;;2.78;;
15476;SDS011;7840;42.702;23.296;2022-11-20T13:48:21;8.18;;;2.80;;
15476;SDS011;7840;42.702;23.296;2022-11-20T13:50:55;5.38;;;2.97;;
15476;SDS011;7840;42.702;23.296;2022-11-20T13:53:55;5.03;;;3.13;;
15476;SDS011;7840;42.702;23.296;2022-11-20T13:56:58;8.40;;;3.10;;
15476;SDS011;7840;42.702;23.296;2022-11-20T13:59:39;5.45;;;2.80;;
15476;SDS011;7840;42.702;23.296;2022-11-20T14:02:15;6.03;;;3.20;;
15476;SDS011;7840;42.702;23.296;2022-11-20T14:04:45;5.32;;;2.60;;
15476;SDS011;7840;42.702;23.296;2022-11-20T14:07:15;5.93;;;3.45;;
15476;SDS011;7840;42.702;23.296;2022-11-20T14:12:34;6.22;;;4.55;;
15476;SDS011;7840;42.702;23.296;2022-11-20T14:15:24;6.95;;;4.43;;
15476;SDS011;7840;42.702;23.296;2022-11-20T14:18:11;8.93;;;5.07;;
15476;SDS011;7840;42.702;23.296;2022-11-20T14:20:59;6.72;;;4.68;;
15476;SDS011;7840;42.702;23.296;2022-11-20T14:23:31;8.40;;;5.15;;
15476;SDS011;7840;42.702;23.296;2022-11-20T14:26:00;13.00;;;5.60;;
15476;SDS011;7840;42.702;23.296;2022-11-20T14:28:32;6.95;;;4.25;;
15476;SDS011;7840;42.702;23.296;2022-11-20T14:31:00;4.30;;;2.70;;
15476;SDS011;7840;42.702;23.296;2022-11-20T14:33:28;4.97;;;2.70;;
15476;SDS011;7840;42.702;23.296;2022-11-20T14:35:59;5.00;;;2.85;;
15476;SDS011;7840;42.702;23.296;2022-11-20T14:38:28;4.40;;;2.90;;
15476;SDS011;7840;42.702;23.296;2022-11-20T14:41:07;3.35;;;2.17;;
15476;SDS011;7840;42.702;23.296;2022-11-20T14:43:36;4.68;;;3.22;;
15476;SDS011;7840;42.702;23.296;2022-11-20T14:46:05;3.70;;;2.90;;
15476;SDS011;7840;42.702;23.296;2022-11-20T14:48:36;3.55;;;2.55;;
15476;SDS011;7840;42.702;23.296;2022-11-20T14:51:23;4.40;;;2.80;;
15476;SDS011;7840;42.702;23.296;2022-11-20T14:53:56;4.38;;;2.53;;
15476;SDS011;7840;42.702;23.296;2022-11-20T14:56:37;4.75;;;3.22;;
15476;SDS011;7840;42.702;23.296;2022-11-20T14:59:05;5.65;;;3.20;;
15476;SDS011;7840;42.702;23.296;2022-11-20T15:01:34;5.97;;;3.35;;
15476;SDS011;7840;42.702;23.296;2022-11-20T15:04:05;6.80;;;3.30;;
15476;SDS011;7840;42.702;23.296;2022-11-20T15:06:35;4.82;;;3.20;;
15476;SDS011;7840;42.702;23.296;2022-11-20T15:09:04;4.85;;;2.65;;
15476;SDS011;7840;42.702;23.296;2022-11-20T15:11:40;4.18;;;3.00;;
15476;SDS011;7840;42.702;23.296;2022-11-20T15:14:20;4.05;;;3.03;;
15476;SDS011;7840;42.702;23.296;2022-11-20T15:16:49;5.22;;;2.63;;
15476;SDS011;7840;42.702;23.296;2022-11-20T15:19:19;4.28;;;1.90;;
15476;SDS011;7840;42.702;23.296;2022-11-20T15:21:49;2.92;;;2.53;;
15476;SDS011;7840;42.702;23.296;2022-11-20T15:24:17;3.83;;;2.30;;
15476;SDS011;7840;42.702;23.296;2022-11-20T15:26:47;3.63;;;2.65;;
15476;SDS011;7840;42.702;23.296;2022-11-20T15:29:15;3.17;;;2.88;;
15476;SDS011;7840;42.702;23.296;2022-11-20T15:31:44;6.68;;;4.93;;
15476;SDS011;7840;42.702;23.296;2022-11-20T15:34:12;6.90;;;3.97;;
15476;SDS011;7840;42.702;23.296;2022-11-20T15:36:47;5.18;;;2.85;;
15476;SDS011;7840;42.702;23.296;2022-11-20T15:39:15;2.33;;;2.00;;
15476;SDS011;7840;42.702;23.296;2022-11-20T15:41:43;3.13;;;2.30;;
15476;SDS011;7840;42.702;23.296;2022-11-20T15:44:16;3.53;;;2.35;;
15476;SDS011;7840;42.702;23.296;2022-11-20T15:46:43;3.27;;;2.10;;
15476;SDS011;7840;42.702;23.296;2022-11-20T15:49:13;3.57;;;1.93;;
15476;SDS011;7840;42.702;23.296;2022-11-20T15:51:44;6.97;;;2.23;;